Woodlawn, Illinois
Current Conditions -  °F | °C
As of 2:55 PM on Saturday 20 Dec 2014 (Local Time) from KMVN Reporting Station
Overcast Overcast  
Wind Chill: 36°   Ceiling: 3100
Heat Index: 39°   Visibility: 10mi
Dew Point: 27°   Wind: 5mph
Humidity: 61%   Direction: 130°SE
Pressure: 30.26"   Gusts: NA
Location:  38.33°N, 89.03°W
Report Text: KMVN 202055Z AUTO 13004KT 10SM OVC031 04/M03 A3026 RMK AO1 57007
Loading
Personal Weather Stations






























Interactive Weather Map New forecast layout! Learn more

10-Day Weather Forecast

Advertisements
Track Severe Weather on mobile